createdAt,value
2018-03-17T00:01:47.159Z,-2.10
2018-03-17T00:04:14.709Z,-2.10
2018-03-17T00:06:42.293Z,-2.00
2018-03-17T00:09:09.845Z,-2.00
2018-03-17T00:11:37.553Z,-2.20
2018-03-17T00:14:05.928Z,-2.20
2018-03-17T00:16:33.606Z,-2.20
2018-03-17T00:19:01.317Z,-2.20
2018-03-17T00:21:28.894Z,-2.20
2018-03-17T00:23:56.644Z,-2.10
2018-03-17T00:26:24.197Z,-2.10
2018-03-17T00:28:51.957Z,-2.20
2018-03-17T00:31:19.623Z,-2.20
2018-03-17T00:33:47.174Z,-2.10
2018-03-17T00:36:14.757Z,-2.30
2018-03-17T00:38:42.313Z,-2.20
2018-03-17T00:41:09.860Z,-2.20
2018-03-17T00:43:37.448Z,-2.30
2018-03-17T00:46:05.050Z,-2.30
2018-03-17T00:48:32.853Z,-2.30
2018-03-17T00:51:00.458Z,-2.30
2018-03-17T00:53:28.042Z,-2.30
2018-03-17T00:55:55.821Z,-2.30
2018-03-17T00:58:23.448Z,-2.40
2018-03-17T01:00:51.141Z,-2.40
2018-03-17T01:03:18.690Z,-2.40
2018-03-17T01:05:46.275Z,-2.50
2018-03-17T01:08:13.837Z,-2.60
2018-03-17T01:10:41.394Z,-2.50
2018-03-17T01:13:08.993Z,-2.60
2018-03-17T01:15:36.544Z,-2.60
2018-03-17T01:18:04.095Z,-2.50
2018-03-17T01:20:31.674Z,-2.60
2018-03-17T01:22:59.226Z,-2.60
2018-03-17T01:25:26.773Z,-2.60
2018-03-17T01:27:54.385Z,-2.70
2018-03-17T01:30:22.005Z,-2.70
2018-03-17T01:32:49.554Z,-2.60
2018-03-17T01:35:17.150Z,-2.60
2018-03-17T01:37:44.692Z,-2.60
2018-03-17T01:40:12.239Z,-2.80
2018-03-17T01:42:39.826Z,-2.80
2018-03-17T01:45:07.410Z,-2.80
2018-03-17T01:47:34.962Z,-2.80
2018-03-17T01:50:02.692Z,-2.80
2018-03-17T01:52:30.237Z,-2.80
2018-03-17T01:54:57.898Z,-2.90
2018-03-17T01:57:25.498Z,-2.90
2018-03-17T01:59:53.065Z,-2.70
2018-03-17T02:02:20.836Z,-2.80
2018-03-17T02:04:49.189Z,-2.70
2018-03-17T02:07:16.751Z,-2.80
2018-03-17T02:09:44.471Z,-2.80
2018-03-17T02:12:12.106Z,-2.80
2018-03-17T02:14:40.418Z,-2.90
2018-03-17T02:17:08.018Z,-2.90
2018-03-17T02:19:35.638Z,-2.90
2018-03-17T02:22:03.309Z,-2.90
2018-03-17T02:24:30.913Z,-2.90
2018-03-17T02:26:58.651Z,-2.90
2018-03-17T02:29:26.198Z,-2.90
2018-03-17T02:31:53.936Z,-2.80
2018-03-17T02:34:21.521Z,-2.90
2018-03-17T02:36:49.078Z,-3.00
2018-03-17T02:39:16.690Z,-3.10
2018-03-17T02:41:44.470Z,-3.20
2018-03-17T02:44:12.082Z,-3.20
2018-03-17T02:46:39.633Z,-3.20
2018-03-17T02:49:07.465Z,-3.20
2018-03-17T02:51:35.010Z,-3.40
2018-03-17T02:54:02.727Z,-3.30
2018-03-17T02:56:30.581Z,-3.30
2018-03-17T02:58:58.130Z,-3.30
2018-03-17T03:01:25.684Z,-3.20
2018-03-17T03:03:53.270Z,-3.20
2018-03-17T03:06:22.451Z,-3.20
2018-03-17T03:08:50.053Z,-3.20
2018-03-17T03:11:17.808Z,-3.20
2018-03-17T03:13:46.201Z,-3.30
2018-03-17T03:16:13.921Z,-3.30
2018-03-17T03:18:41.565Z,-3.30
2018-03-17T03:21:09.237Z,-3.30
2018-03-17T03:23:36.859Z,-3.40
2018-03-17T03:26:05.314Z,-3.50
2018-03-17T03:28:33.033Z,-3.50
2018-03-17T03:31:00.649Z,-3.40
2018-03-17T03:33:28.353Z,-3.40
2018-03-17T03:35:55.898Z,-3.50
2018-03-17T03:38:23.677Z,-3.40
2018-03-17T03:40:51.398Z,-3.30
2018-03-17T03:43:19.155Z,-3.40
2018-03-17T03:45:47.039Z,-3.40
2018-03-17T03:48:14.622Z,-3.40
2018-03-17T03:50:42.173Z,-3.40
2018-03-17T03:53:09.741Z,-3.20
2018-03-17T03:55:37.498Z,-3.50
2018-03-17T03:58:05.049Z,-3.50
2018-03-17T04:00:32.622Z,-3.40
2018-03-17T04:03:00.321Z,-3.40
2018-03-17T04:05:28.637Z,-3.50
2018-03-17T04:07:56.185Z,-3.50
2018-03-17T04:10:23.826Z,-3.50
2018-03-17T04:12:51.694Z,-3.40
2018-03-17T04:15:19.243Z,-3.40
2018-03-17T04:17:47.589Z,-3.50
2018-03-17T04:20:15.144Z,-3.50
2018-03-17T04:22:43.014Z,-3.60
2018-03-17T04:25:10.597Z,-3.40
2018-03-17T04:27:38.321Z,-3.50
2018-03-17T04:30:05.881Z,-3.50
2018-03-17T04:32:33.632Z,-3.60
2018-03-17T04:35:02.081Z,-3.60
2018-03-17T04:37:29.790Z,-3.60
2018-03-17T04:39:57.373Z,-3.60
2018-03-17T04:42:24.918Z,-3.70
2018-03-17T04:44:52.469Z,-3.70
2018-03-17T04:47:20.075Z,-3.80
2018-03-17T04:49:47.629Z,-3.70
2018-03-17T04:52:15.177Z,-3.70
2018-03-17T04:54:43.537Z,-3.70
2018-03-17T04:57:11.129Z,-3.70
2018-03-17T04:59:38.786Z,-3.90
2018-03-17T05:02:06.421Z,-3.80
2018-03-17T05:04:34.885Z,-3.70
2018-03-17T05:07:02.429Z,-3.70
2018-03-17T05:09:30.014Z,-3.80
2018-03-17T05:11:58.346Z,-3.90
2018-03-17T05:14:25.895Z,-3.90
2018-03-17T05:16:53.582Z,-3.80
2018-03-17T05:19:21.438Z,-3.90
2018-03-17T05:21:49.058Z,-4.00
2018-03-17T05:24:16.770Z,-3.90
2018-03-17T05:26:44.316Z,-3.90
2018-03-17T05:29:12.268Z,-3.90
2018-03-17T05:31:40.217Z,-4.00
2018-03-17T05:34:07.776Z,-3.90
2018-03-17T05:36:35.517Z,-4.00
2018-03-17T05:39:03.195Z,-4.10
2018-03-17T05:41:30.755Z,-4.00
2018-03-17T05:43:58.338Z,-4.00
2018-03-17T05:46:25.937Z,-4.10
2018-03-17T05:48:53.490Z,-4.10
2018-03-17T05:51:21.042Z,-4.00
2018-03-17T05:53:48.629Z,-4.00
2018-03-17T05:56:16.177Z,-4.00
2018-03-17T05:58:44.500Z,-4.20
2018-03-17T06:01:12.287Z,-4.20
2018-03-17T06:03:39.838Z,-4.10
2018-03-17T06:06:07.459Z,-4.00
2018-03-17T06:08:35.039Z,-3.80
2018-03-17T06:11:02.616Z,-4.10
2018-03-17T06:13:30.337Z,-4.00
2018-03-17T06:19:06.082Z,-4.10
2018-03-17T06:21:34.590Z,-4.20
2018-03-17T06:24:02.422Z,-4.20
2018-03-17T06:26:30.446Z,-4.30
2018-03-17T06:28:58.322Z,-4.20
2018-03-17T06:31:25.950Z,-4.20
2018-03-17T06:33:53.669Z,-4.30
2018-03-17T06:36:21.314Z,-4.30
2018-03-17T06:38:49.143Z,-4.30
2018-03-17T06:41:16.902Z,-4.30
2018-03-17T06:43:44.954Z,-4.20
2018-03-17T06:46:12.586Z,-4.20
2018-03-17T06:48:40.153Z,-4.20
2018-03-17T06:51:09.362Z,-4.10
2018-03-17T06:53:37.953Z,-4.10
2018-03-17T06:56:05.679Z,-4.10
2018-03-17T06:58:33.517Z,-4.20
2018-03-17T07:01:01.074Z,-4.20
2018-03-17T07:03:28.622Z,-4.10
2018-03-17T07:05:56.310Z,-4.10
2018-03-17T07:08:23.990Z,-4.20
2018-03-17T07:10:51.598Z,-4.30
2018-03-17T07:13:19.511Z,-4.20
2018-03-17T07:15:47.067Z,-4.20
2018-03-17T07:18:14.621Z,-4.20
2018-03-17T07:20:42.210Z,-4.10
2018-03-17T07:23:09.946Z,-4.10
2018-03-17T07:25:37.669Z,-4.10
2018-03-17T07:28:05.253Z,-4.30
2018-03-17T07:30:32.849Z,-4.10
2018-03-17T07:33:00.599Z,-4.20
2018-03-17T07:35:28.225Z,-4.20
2018-03-17T07:37:55.949Z,-4.10
2018-03-17T07:40:24.610Z,-4.10
2018-03-17T07:42:52.195Z,-4.10
2018-03-17T07:45:20.178Z,-4.10
2018-03-17T07:47:48.474Z,-4.10
2018-03-17T07:50:16.230Z,-4.10
2018-03-17T07:52:44.063Z,-4.20
2018-03-17T07:55:11.626Z,-4.10
2018-03-17T07:57:39.357Z,-4.10
2018-03-17T08:00:07.070Z,-4.00
2018-03-17T08:02:34.647Z,-3.90
2018-03-17T08:05:02.424Z,-3.90
2018-03-17T08:07:29.990Z,-3.90
2018-03-17T08:09:57.552Z,-3.80
2018-03-17T08:12:25.159Z,-4.10
2018-03-17T08:14:53.092Z,-3.90
2018-03-17T08:17:20.657Z,-3.80
2018-03-17T08:19:48.623Z,-3.80
2018-03-17T08:22:16.954Z,-3.80
2018-03-17T08:24:44.509Z,-3.80
2018-03-17T08:27:12.422Z,-3.80
2018-03-17T08:29:40.238Z,-3.80
2018-03-17T08:32:07.951Z,-3.70
2018-03-17T08:34:36.789Z,-3.70
2018-03-17T08:37:04.345Z,-3.70
2018-03-17T08:39:31.919Z,-3.80
2018-03-17T08:41:59.602Z,-3.80
2018-03-17T08:44:27.154Z,-3.90
2018-03-17T08:46:54.710Z,-3.90
2018-03-17T08:49:22.302Z,-4.00
2018-03-17T08:51:50.087Z,-3.90
2018-03-17T08:54:17.663Z,-3.90
2018-03-17T08:56:45.430Z,-3.70
2018-03-17T08:59:14.543Z,-3.80
2018-03-17T09:01:42.164Z,-3.80
2018-03-17T09:04:09.971Z,-3.70
2018-03-17T09:06:37.613Z,-3.70
2018-03-17T09:09:05.177Z,-3.90
2018-03-17T09:11:32.952Z,-3.70
2018-03-17T09:14:00.511Z,-3.90
2018-03-17T09:16:28.247Z,-3.80
2018-03-17T09:18:56.175Z,-3.80
2018-03-17T09:21:24.549Z,-3.80
2018-03-17T09:23:52.113Z,-3.80
2018-03-17T09:26:20.485Z,-3.80
2018-03-17T09:28:48.042Z,-3.90
2018-03-17T09:31:16.508Z,-3.80
2018-03-17T09:33:44.126Z,-3.80
2018-03-17T09:36:11.672Z,-3.90
2018-03-17T09:38:39.426Z,-4.10
2018-03-17T09:41:07.347Z,-3.90
2018-03-17T09:43:34.982Z,-3.90
2018-03-17T09:46:02.731Z,-3.70
2018-03-17T09:48:30.509Z,-3.80
2018-03-17T09:50:58.062Z,-3.80
2018-03-17T09:53:25.855Z,-3.70
2018-03-17T09:55:53.454Z,-3.60
2018-03-17T09:58:21.383Z,-3.50
2018-03-17T10:00:49.253Z,-3.60
2018-03-17T10:03:17.323Z,-3.70
2018-03-17T10:05:44.996Z,-3.50
2018-03-17T10:08:13.331Z,-3.50
2018-03-17T10:10:41.087Z,-3.50
2018-03-17T10:13:08.650Z,-3.60
2018-03-17T10:15:36.228Z,-3.50
2018-03-17T10:18:03.908Z,-3.60
2018-03-17T10:20:31.712Z,-3.50
2018-03-17T10:22:59.593Z,-3.70
2018-03-17T10:25:27.271Z,-3.80
2018-03-17T10:27:54.870Z,-3.60
2018-03-17T10:30:22.427Z,-3.80
2018-03-17T10:32:51.023Z,-3.60
2018-03-17T10:35:18.764Z,-3.60
2018-03-17T10:37:46.550Z,-3.60
2018-03-17T10:40:14.143Z,-3.60
2018-03-17T10:42:41.746Z,-3.60
2018-03-17T10:45:10.018Z,-3.60
2018-03-17T10:47:37.637Z,-3.60
2018-03-17T10:50:05.277Z,-3.50
2018-03-17T10:52:32.836Z,-3.50
2018-03-17T10:55:00.642Z,-3.60
2018-03-17T10:57:28.318Z,-3.60
2018-03-17T10:59:55.904Z,-3.60
2018-03-17T11:02:23.568Z,-3.50
2018-03-17T11:04:51.295Z,-3.60
2018-03-17T11:07:18.946Z,-3.60
2018-03-17T11:09:46.680Z,-3.70
2018-03-17T11:12:14.254Z,-3.50
2018-03-17T11:14:41.815Z,-3.60
2018-03-17T11:17:09.606Z,-3.70
2018-03-17T11:19:37.252Z,-3.80
2018-03-17T11:22:04.818Z,-3.90
2018-03-17T11:24:33.185Z,-3.70
2018-03-17T11:27:00.870Z,-3.70
2018-03-17T11:29:29.525Z,-3.70
2018-03-17T11:31:57.180Z,-3.70
2018-03-17T11:34:24.862Z,-3.90
2018-03-17T11:36:52.666Z,-4.10
2018-03-17T11:39:20.254Z,-4.10
2018-03-17T11:41:47.901Z,-4.00
2018-03-17T11:44:17.184Z,-4.20
2018-03-17T11:46:45.014Z,-4.20
2018-03-17T11:49:12.574Z,-4.00
2018-03-17T11:51:40.326Z,-3.90
2018-03-17T11:54:08.200Z,-4.00
2018-03-17T11:56:36.728Z,-3.90
2018-03-17T11:59:04.287Z,-4.00
2018-03-17T12:01:31.894Z,-4.00
2018-03-17T12:03:59.862Z,-4.00
2018-03-17T12:06:28.221Z,-4.00
2018-03-17T12:08:56.034Z,-4.00
2018-03-17T12:11:23.666Z,-3.90
2018-03-17T12:13:51.337Z,-3.90
2018-03-17T12:16:19.781Z,-3.90
2018-03-17T12:18:47.815Z,-3.90
2018-03-17T12:21:15.414Z,-3.80
2018-03-17T12:23:43.241Z,-3.90
2018-03-17T12:26:10.987Z,-4.00
2018-03-17T12:28:38.646Z,-4.00
2018-03-17T12:31:06.243Z,-3.90
2018-03-17T12:33:33.987Z,-4.20
2018-03-17T12:36:01.712Z,-4.20
2018-03-17T12:38:29.583Z,-4.00
2018-03-17T12:40:58.098Z,-4.10
2018-03-17T12:43:25.767Z,-4.10
2018-03-17T12:45:53.411Z,-4.10
2018-03-17T12:48:21.415Z,-4.20
2018-03-17T12:50:49.287Z,-4.20
2018-03-17T12:53:17.168Z,-4.20
2018-03-17T12:55:44.999Z,-4.20
2018-03-17T12:58:12.656Z,-4.20
2018-03-17T13:00:40.544Z,-4.20
2018-03-17T13:03:08.281Z,-4.20
2018-03-17T13:05:36.102Z,-4.40
2018-03-17T13:08:04.594Z,-4.20
2018-03-17T13:10:32.906Z,-4.20
2018-03-17T13:13:00.650Z,-4.30
2018-03-17T13:15:28.253Z,-4.20
2018-03-17T13:17:55.798Z,-4.30
2018-03-17T13:20:23.491Z,-4.30
2018-03-17T13:25:52.800Z,-4.40
2018-03-17T13:28:35.994Z,-4.40
2018-03-17T13:31:03.557Z,-4.40
2018-03-17T13:33:31.348Z,-4.30
2018-03-17T13:36:10.923Z,-4.30
2018-03-17T13:38:39.315Z,-4.30
2018-03-17T13:41:07.047Z,-4.40
2018-03-17T13:43:35.508Z,-4.30
2018-03-17T13:46:03.057Z,-4.30
2018-03-17T13:48:31.058Z,-4.30
2018-03-17T13:50:59.513Z,-4.30
2018-03-17T13:53:27.547Z,-4.30
2018-03-17T13:55:55.210Z,-4.20
2018-03-17T13:58:22.950Z,-4.30
2018-03-17T14:00:50.499Z,-4.40
2018-03-17T14:03:18.084Z,-4.30
2018-03-17T14:05:45.706Z,-4.30
2018-03-17T14:08:14.518Z,-4.30
2018-03-17T14:10:42.066Z,-4.30
2018-03-17T14:13:09.773Z,-4.30
2018-03-17T14:15:37.328Z,-4.30
2018-03-17T14:18:04.971Z,-4.40
2018-03-17T14:20:32.837Z,-4.40
2018-03-17T14:23:00.439Z,-4.40
2018-03-17T14:25:27.999Z,-4.50
2018-03-17T14:27:55.677Z,-4.50
2018-03-17T14:30:23.251Z,-4.50
2018-03-17T14:32:50.808Z,-4.70
2018-03-17T14:35:18.438Z,-4.70
2018-03-17T14:37:46.053Z,-4.70
2018-03-17T14:40:13.654Z,-4.80
2018-03-17T14:42:41.437Z,-4.70
2018-03-17T14:45:09.784Z,-4.90
2018-03-17T14:47:37.381Z,-4.90
2018-03-17T14:50:05.850Z,-4.90
2018-03-17T14:52:35.189Z,-4.90
2018-03-17T14:55:02.755Z,-4.90
2018-03-17T14:57:30.345Z,-4.80
2018-03-17T14:59:58.173Z,-4.80
2018-03-17T15:02:26.141Z,-4.90
2018-03-17T15:04:53.893Z,-4.90
2018-03-17T15:07:21.729Z,-4.90
2018-03-17T15:09:50.088Z,-4.80
2018-03-17T15:12:17.759Z,-4.80
2018-03-17T15:14:45.319Z,-4.90
2018-03-17T15:17:13.948Z,-5.10
2018-03-17T15:19:41.930Z,-5.10
2018-03-17T15:22:09.519Z,-5.10
2018-03-17T15:24:37.850Z,-5.10
2018-03-17T15:27:05.444Z,-5.00
2018-03-17T15:29:33.251Z,-5.10
2018-03-17T15:32:02.580Z,-5.00
2018-03-17T15:34:30.246Z,-5.00
2018-03-17T15:36:57.816Z,-5.10
2018-03-17T15:39:25.387Z,-5.00
2018-03-17T15:41:53.251Z,-5.00
2018-03-17T15:44:20.826Z,-5.00
2018-03-17T15:46:48.747Z,-5.10
2018-03-17T15:49:16.650Z,-5.10
2018-03-17T15:51:44.253Z,-5.10
2018-03-17T15:54:11.811Z,-5.10
2018-03-17T15:56:39.438Z,-5.10
2018-03-17T15:59:07.766Z,-5.10
2018-03-17T16:01:35.357Z,-5.20
2018-03-17T16:04:03.038Z,-5.10
2018-03-17T16:06:31.441Z,-5.20
2018-03-17T16:08:59.498Z,-5.20
2018-03-17T16:11:27.375Z,-5.20
2018-03-17T16:13:54.947Z,-5.20
2018-03-17T16:16:22.508Z,-5.30
2018-03-17T16:18:50.198Z,-5.20
2018-03-17T16:21:17.758Z,-5.20
2018-03-17T16:23:46.371Z,-5.30
2018-03-17T16:26:14.729Z,-5.30
2018-03-17T16:28:42.301Z,-5.30
2018-03-17T16:31:09.888Z,-5.20
2018-03-17T16:33:37.607Z,-5.20
2018-03-17T16:36:05.181Z,-5.10
2018-03-17T16:38:32.747Z,-5.30
2018-03-17T16:41:01.119Z,-5.40
2018-03-17T16:43:28.683Z,-5.40
2018-03-17T16:45:57.004Z,-5.30
2018-03-17T16:48:24.938Z,-5.40
2018-03-17T16:50:52.551Z,-5.40
2018-03-17T16:53:20.488Z,-5.40
2018-03-17T16:55:48.108Z,-5.40
2018-03-17T16:58:15.686Z,-5.40
2018-03-17T17:00:43.335Z,-5.40
2018-03-17T17:03:11.058Z,-5.50
2018-03-17T17:05:38.675Z,-5.40
2018-03-17T17:08:06.695Z,-5.50
2018-03-17T17:10:34.313Z,-5.40
2018-03-17T17:13:01.884Z,-5.40
2018-03-17T17:15:29.690Z,-5.50
2018-03-17T17:17:57.930Z,-5.50
2018-03-17T17:20:25.518Z,-5.40
2018-03-17T17:22:53.453Z,-5.30
2018-03-17T17:25:21.176Z,-5.40
2018-03-17T17:27:48.740Z,-5.40
2018-03-17T17:30:16.327Z,-5.40
2018-03-17T17:32:43.922Z,-5.50
2018-03-17T17:35:11.479Z,-5.40
2018-03-17T17:37:39.042Z,-5.40
2018-03-17T17:40:07.744Z,-5.40
2018-03-17T17:42:35.430Z,-5.50
2018-03-17T17:45:03.628Z,-5.50
2018-03-17T17:47:31.478Z,-5.50
2018-03-17T17:49:59.081Z,-5.40
2018-03-17T17:52:26.794Z,-5.40
2018-03-17T17:54:55.017Z,-5.50
2018-03-17T17:57:24.772Z,-5.50
2018-03-17T17:59:52.528Z,-5.50
2018-03-17T18:02:20.528Z,-5.50
2018-03-17T18:04:48.510Z,-5.50
2018-03-17T18:07:16.087Z,-5.60
2018-03-17T18:09:43.682Z,-5.50
2018-03-17T18:12:11.241Z,-5.60
2018-03-17T18:14:38.807Z,-5.50
2018-03-17T18:17:06.404Z,-5.50
2018-03-17T18:19:33.982Z,-5.50
2018-03-17T18:22:01.589Z,-5.60
2018-03-17T18:24:29.471Z,-5.60
2018-03-17T18:26:57.073Z,-5.60
2018-03-17T18:29:24.801Z,-5.70
2018-03-17T18:31:53.481Z,-5.60
2018-03-17T18:34:21.059Z,-5.60
2018-03-17T18:36:48.818Z,-5.60
2018-03-17T18:39:16.574Z,-5.60
2018-03-17T18:41:44.566Z,-5.60
2018-03-17T18:44:12.118Z,-5.60
2018-03-17T18:46:39.941Z,-5.60
2018-03-17T18:49:07.818Z,-5.60
2018-03-17T18:51:35.403Z,-5.50
2018-03-17T18:54:03.317Z,-5.50
2018-03-17T18:56:31.926Z,-5.50
2018-03-17T18:58:59.497Z,-5.60
2018-03-17T19:01:27.477Z,-5.60
2018-03-17T19:03:55.138Z,-5.60
2018-03-17T19:06:22.703Z,-5.70
2018-03-17T19:08:51.998Z,-5.70
2018-03-17T19:11:20.841Z,-5.70
2018-03-17T19:13:48.475Z,-5.70
2018-03-17T19:16:16.856Z,-5.70
2018-03-17T19:18:44.810Z,-5.70
2018-03-17T19:21:12.377Z,-5.70
2018-03-17T19:23:39.990Z,-5.70
2018-03-17T19:26:07.743Z,-5.60
2018-03-17T19:28:35.595Z,-5.70
2018-03-17T19:31:03.523Z,-5.80
2018-03-17T19:33:31.244Z,-5.80
2018-03-17T19:35:58.963Z,-5.90
2018-03-17T19:38:26.671Z,-5.80
2018-03-17T19:40:54.425Z,-5.90
2018-03-17T19:43:22.011Z,-5.90
2018-03-17T19:45:49.861Z,-5.90
2018-03-17T19:48:17.510Z,-5.90
2018-03-17T19:50:45.485Z,-5.90
2018-03-17T19:53:13.467Z,-5.90
2018-03-17T19:55:41.309Z,-5.90
2018-03-17T19:58:09.298Z,-5.90
2018-03-17T20:00:37.043Z,-5.90
2018-03-17T20:03:04.690Z,-5.90
2018-03-17T20:05:32.572Z,-6.00
2018-03-17T20:08:00.190Z,-6.00
2018-03-17T20:10:27.773Z,-5.90
2018-03-17T20:12:55.669Z,-5.90
2018-03-17T20:15:23.283Z,-6.00
2018-03-17T20:17:50.854Z,-6.00
2018-03-17T20:20:18.551Z,-6.00
2018-03-17T20:22:46.177Z,-6.00
2018-03-17T20:25:13.747Z,-6.10
2018-03-17T20:27:41.320Z,-6.00
2018-03-17T20:30:08.975Z,-5.90
2018-03-17T20:32:37.351Z,-6.00
2018-03-17T20:35:04.931Z,-6.00
2018-03-17T20:37:32.718Z,-6.00
2018-03-17T20:40:00.842Z,-6.00
2018-03-17T20:42:28.964Z,-6.00
2018-03-17T20:44:57.394Z,-6.10
2018-03-17T20:47:24.979Z,-6.10
2018-03-17T20:49:52.558Z,-6.10
2018-03-17T20:52:20.385Z,-6.10
2018-03-17T20:54:47.941Z,-6.10
2018-03-17T20:57:15.503Z,-6.10
2018-03-17T20:59:43.230Z,-6.00
2018-03-17T21:02:11.445Z,-6.10
2018-03-17T21:04:39.002Z,-6.00
2018-03-17T21:07:06.926Z,-6.10
2018-03-17T21:09:34.686Z,-6.20
2018-03-17T21:12:02.246Z,-6.20
2018-03-17T21:14:30.806Z,-6.20
2018-03-17T21:16:59.008Z,-6.10
2018-03-17T21:19:26.591Z,-6.10
2018-03-17T21:21:54.398Z,-6.10
2018-03-17T21:24:22.022Z,-6.10
2018-03-17T21:26:49.796Z,-6.20
2018-03-17T21:29:17.657Z,-6.30
2018-03-17T21:31:45.929Z,-6.30
2018-03-17T21:34:13.995Z,-6.30
2018-03-17T21:36:41.977Z,-6.30
2018-03-17T21:39:09.770Z,-6.40
2018-03-17T21:41:37.807Z,-6.30
2018-03-17T21:44:05.784Z,-6.40
2018-03-17T21:46:33.886Z,-6.40
2018-03-17T21:49:02.234Z,-6.40
2018-03-17T21:51:29.842Z,-6.40
2018-03-17T21:53:57.862Z,-6.40
2018-03-17T21:56:25.435Z,-6.40
2018-03-17T21:58:53.568Z,-6.40
2018-03-17T22:01:21.670Z,-6.40
2018-03-17T22:03:49.255Z,-6.40
2018-03-17T22:06:17.253Z,-6.40
2018-03-17T22:08:45.026Z,-6.30
2018-03-17T22:11:13.096Z,-6.40
2018-03-17T22:13:40.960Z,-6.40
2018-03-17T22:16:08.789Z,-6.40
2018-03-17T22:18:36.365Z,-6.40
2018-03-17T22:21:04.467Z,-6.60
2018-03-17T22:23:32.030Z,-6.60
2018-03-17T22:25:59.589Z,-6.60
2018-03-17T22:28:27.429Z,-6.70
2018-03-17T22:30:54.989Z,-6.60
2018-03-17T22:33:22.551Z,-6.70
2018-03-17T22:35:50.748Z,-6.60
2018-03-17T22:38:18.438Z,-6.70
2018-03-17T22:40:46.844Z,-6.60
2018-03-17T22:43:14.751Z,-6.70
2018-03-17T22:45:42.833Z,-6.70
2018-03-17T22:48:10.396Z,-6.70
2018-03-17T22:50:38.003Z,-6.70
2018-03-17T22:53:05.609Z,-6.70
2018-03-17T22:55:33.163Z,-6.80
2018-03-17T22:58:00.749Z,-6.80
2018-03-17T23:00:29.070Z,-6.90
2018-03-17T23:02:56.807Z,-6.90
2018-03-17T23:05:24.414Z,-6.90
2018-03-17T23:07:52.023Z,-6.90
2018-03-17T23:10:20.506Z,-6.90
2018-03-17T23:12:48.135Z,-6.90
2018-03-17T23:15:15.687Z,-6.90
2018-03-17T23:17:43.497Z,-6.90
2018-03-17T23:20:11.105Z,-7.00
2018-03-17T23:22:38.665Z,-7.10
2018-03-17T23:25:07.097Z,-7.10
2018-03-17T23:27:35.141Z,-7.10
2018-03-17T23:30:03.544Z,-7.20
2018-03-17T23:32:31.115Z,-7.20
2018-03-17T23:34:58.899Z,-7.20
2018-03-17T23:37:26.954Z,-7.10
2018-03-17T23:39:54.514Z,-7.20
2018-03-17T23:42:22.143Z,-7.10
2018-03-17T23:44:49.719Z,-7.20
2018-03-17T23:47:17.287Z,-7.30
2018-03-17T23:49:45.307Z,-7.30
2018-03-17T23:52:13.651Z,-7.30
2018-03-17T23:54:41.214Z,-7.40
2018-03-17T23:57:09.012Z,-7.40
2018-03-17T23:59:36.711Z,-7.40
